Time;durP1;ratioP1;P1;durP2;ratioP2;P2;SDS_P1;SDS_P2;PMS_P1;PMS_P2;Temp;Humidity;BMP_temperature;BMP_pressure;BME280_temperature;BME280_humidity;BME280_pressure;Samples;Min_cycle;Max_cycle;Signal;HPM_P1;HPM_P2
2021/09/02 00:00:28;;;;;;;13.23;6.47;;;;;;;;;;10400326;28;20225;-69
2021/09/02 00:05:32;;;;;;;11.40;6.23;;;;;;;;;;10393582;28;20581;-70
2021/09/02 00:10:36;;;;;;;11.33;6.07;;;;;;;;;;10393183;28;20634;-69
2021/09/02 00:15:39;;;;;;;11.20;6.37;;;;;;;;;;10400857;28;20316;-70
2021/09/02 00:20:42;;;;;;;10.43;5.67;;;;;;;;;;10398187;28;20221;-70
2021/09/02 00:25:46;;;;;;;11.90;6.93;;;;;;;;;;10400310;28;20366;-69
2021/09/02 00:30:49;;;;;;;12.53;6.73;;;;;;;;;;10400347;28;20570;-67
2021/09/02 00:35:52;;;;;;;11.53;6.37;;;;;;;;;;10398553;28;20452;-70
2021/09/02 00:40:57;;;;;;;12.27;7.30;;;;;;;;;;10398220;28;20214;-69
2021/09/02 00:45:59;;;;;;;13.93;7.77;;;;;;;;;;10397392;28;20221;-71
2021/09/02 00:51:02;;;;;;;14.67;7.43;;;;;;;;;;10397930;28;20650;-71
2021/09/02 00:56:06;;;;;;;13.50;7.80;;;;;;;;;;10396527;28;20244;-69
2021/09/02 01:01:09;;;;;;;14.60;8.23;;;;;;;;;;10395519;28;20252;-69
2021/09/02 01:06:13;;;;;;;12.97;7.30;;;;;;;;;;10394420;28;20218;-71
2021/09/02 01:11:17;;;;;;;12.77;7.83;;;;;;;;;;10391749;28;20205;-70
2021/09/02 01:16:24;;;;;;;14.73;8.53;;;;;;;;;;10391374;28;20217;-69
2021/09/02 01:21:29;;;;;;;11.50;6.87;;;;;;;;;;10391391;28;20236;-71
2021/09/02 01:26:53;;;;;;;11.47;7.17;;;;;;;;;;10392870;28;20260;-73
2021/09/02 01:31:56;;;;;;;12.57;7.70;;;;;;;;;;10395027;28;20196;-71
2021/09/02 01:36:59;;;;;;;14.27;8.13;;;;;;;;;;10398535;28;20256;-69
2021/09/02 01:42:04;;;;;;;15.37;8.17;;;;;;;;;;10412045;28;20535;-67
2021/09/02 01:47:19;;;;;;;14.67;8.50;;;;;;;;;;10396850;28;20248;-70
2021/09/02 01:52:22;;;;;;;17.53;9.67;;;;;;;;;;10394364;28;20296;-70
2021/09/02 01:57:26;;;;;;;0.27;0.27;;;;;;;;;;10393648;28;20217;-70
2021/09/02 02:02:29;;;;;;;0.30;0.30;;;;;;;;;;10390732;28;20237;-70
2021/09/02 02:07:32;;;;;;;0.30;0.30;;;;;;;;;;10391846;28;20263;-70
2021/09/02 02:12:36;;;;;;;0.30;0.30;;;;;;;;;;10392671;28;20210;-69
2021/09/02 02:17:39;;;;;;;0.10;0.10;;;;;;;;;;10389924;28;20241;-70
2021/09/02 02:22:42;;;;;;;0.10;0.10;;;;;;;;;;10395122;28;20237;-71
2021/09/02 02:27:46;;;;;;;0.10;0.10;;;;;;;;;;10390468;28;20217;-70
2021/09/02 02:32:49;;;;;;;0.10;0.10;;;;;;;;;;10394167;28;20275;-72
2021/09/02 02:37:52;;;;;;;0.10;0.10;;;;;;;;;;10401741;28;20701;-69
2021/09/02 02:42:58;;;;;;;0.00;0.00;;;;;;;;;;10402041;28;20704;-69
2021/09/02 02:48:01;;;;;;;0.10;0.10;;;;;;;;;;10400120;28;20245;-69
2021/09/02 02:53:04;;;;;;;0.07;0.07;;;;;;;;;;10399650;28;20646;-70
2021/09/02 02:58:08;;;;;;;0.10;0.10;;;;;;;;;;10399482;28;20285;-70
2021/09/02 03:03:11;;;;;;;0.00;0.00;;;;;;;;;;10396862;28;20316;-70
2021/09/02 03:08:14;;;;;;;0.10;0.10;;;;;;;;;;10400058;28;20276;-70
2021/09/02 03:13:18;;;;;;;0.00;0.00;;;;;;;;;;10401263;28;20554;-70
2021/09/02 03:18:21;;;;;;;0.10;0.10;;;;;;;;;;10397930;28;20190;-70
2021/09/02 03:23:24;;;;;;;0.00;0.00;;;;;;;;;;10401959;28;20387;-68
2021/09/02 03:28:28;;;;;;;0.00;0.00;;;;;;;;;;10413942;28;20189;-71
2021/09/02 03:33:31;;;;;;;0.00;0.00;;;;;;;;;;10397107;28;20279;-70
2021/09/02 03:38:34;;;;;;;0.10;0.10;;;;;;;;;;10398375;28;20213;-70
2021/09/02 03:43:38;;;;;;;0.00;0.00;;;;;;;;;;10397125;28;20390;-69
2021/09/02 03:48:41;;;;;;;0.03;0.03;;;;;;;;;;10395209;28;20198;-67
2021/09/02 03:53:43;;;;;;;0.10;0.10;;;;;;;;;;10399798;28;20218;-70
2021/09/02 03:58:48;;;;;;;0.00;0.00;;;;;;;;;;10399579;28;20633;-70
2021/09/02 04:03:50;;;;;;;0.00;0.00;;;;;;;;;;10397988;28;20214;-69
2021/09/02 04:08:53;;;;;;;0.00;0.00;;;;;;;;;;10395746;28;20204;-70
2021/09/02 04:13:57;;;;;;;0.00;0.00;;;;;;;;;;10394370;28;20248;-69
2021/09/02 04:19:00;;;;;;;0.03;0.03;;;;;;;;;;10394839;28;20198;-71
2021/09/02 04:24:03;;;;;;;0.10;0.10;;;;;;;;;;10396110;28;20325;-71
2021/09/02 04:29:07;;;;;;;0.00;0.00;;;;;;;;;;10393694;28;20220;-71
2021/09/02 04:34:10;;;;;;;0.10;0.10;;;;;;;;;;10392844;28;20694;-71
2021/09/02 04:39:13;;;;;;;0.10;0.10;;;;;;;;;;10390760;28;20527;-69
2021/09/02 04:44:18;;;;;;;0.10;0.10;;;;;;;;;;10395754;28;20607;-70
2021/09/02 04:49:21;;;;;;;0.00;0.00;;;;;;;;;;10395055;28;20193;-70
2021/09/02 04:54:24;;;;;;;0.07;0.07;;;;;;;;;;10409407;28;20210;-70
2021/09/02 04:59:28;;;;;;;0.10;0.10;;;;;;;;;;10381781;28;20190;-69
2021/09/02 05:04:31;;;;;;;0.00;0.00;;;;;;;;;;10389254;28;20317;-69
2021/09/02 05:09:34;;;;;;;0.00;0.00;;;;;;;;;;10393901;28;20666;-68
2021/09/02 05:14:50;;;;;;;0.00;0.00;;;;;;;;;;10390234;28;20292;-67
2021/09/02 05:19:53;;;;;;;0.00;0.00;;;;;;;;;;10389769;28;20794;-67
2021/09/02 05:24:56;;;;;;;0.00;0.00;;;;;;;;;;10389657;28;20290;-68
2021/09/02 05:30:00;;;;;;;0.03;0.00;;;;;;;;;;10388943;28;20233;-71
2021/09/02 05:35:03;;;;;;;0.00;0.00;;;;;;;;;;10390141;28;20237;-72
2021/09/02 05:40:07;;;;;;;0.00;0.00;;;;;;;;;;10392932;28;20229;-71
2021/09/02 05:45:12;;;;;;;0.00;0.00;;;;;;;;;;10390936;28;20641;-70
2021/09/02 05:50:15;;;;;;;0.00;0.00;;;;;;;;;;10394960;28;20441;-68
2021/09/02 05:55:18;;;;;;;0.00;0.00;;;;;;;;;;10391155;28;20205;-70
2021/09/02 06:00:22;;;;;;;0.10;0.10;;;;;;;;;;10395330;28;20911;-70
2021/09/02 06:05:26;;;;;;;0.00;0.00;;;;;;;;;;10391276;28;20311;-70
2021/09/02 06:10:31;;;;;;;0.00;0.00;;;;;;;;;;10393464;28;20201;-71
2021/09/02 06:15:35;;;;;;;0.00;0.00;;;;;;;;;;10392766;28;20232;-72
2021/09/02 06:20:38;;;;;;;0.00;0.00;;;;;;;;;;10400684;28;20298;-69
2021/09/02 06:25:41;;;;;;;0.00;0.00;;;;;;;;;;10401433;28;20221;-69
2021/09/02 06:30:46;;;;;;;0.00;0.00;;;;;;;;;;10395500;28;20202;-70
2021/09/02 06:35:48;;;;;;;0.33;0.10;;;;;;;;;;10397810;28;20603;-70
2021/09/02 06:40:51;;;;;;;0.00;0.00;;;;;;;;;;10400939;28;20674;-71
2021/09/02 06:45:55;;;;;;;0.20;0.10;;;;;;;;;;10399474;28;20221;-71
2021/09/02 06:50:58;;;;;;;0.10;0.10;;;;;;;;;;10400383;28;20217;-71
2021/09/02 06:56:01;;;;;;;0.20;0.20;;;;;;;;;;10400546;28;20339;-70
2021/09/02 07:01:05;;;;;;;0.10;0.10;;;;;;;;;;10398121;28;20213;-70
2021/09/02 07:06:09;;;;;;;0.10;0.10;;;;;;;;;;10400445;28;20304;-72
2021/09/02 07:11:11;;;;;;;0.20;0.20;;;;;;;;;;10410982;28;20601;-70
2021/09/02 07:16:16;;;;;;;0.20;0.20;;;;;;;;;;10396107;28;20220;-71
2021/09/02 07:21:19;;;;;;;0.20;0.20;;;;;;;;;;10400757;28;20590;-71
2021/09/02 07:26:21;;;;;;;0.30;0.30;;;;;;;;;;10398276;28;20218;-71
2021/09/02 07:31:26;;;;;;;0.20;0.20;;;;;;;;;;10399322;28;20272;-72
2021/09/02 07:36:29;;;;;;;0.30;0.30;;;;;;;;;;10396917;28;20665;-69
2021/09/02 07:41:45;;;;;;;0.20;0.20;;;;;;;;;;10393400;28;20347;-72
2021/09/02 07:46:49;;;;;;;0.20;0.20;;;;;;;;;;10398519;28;20751;-72
2021/09/02 07:51:52;;;;;;;0.20;0.20;;;;;;;;;;10398159;28;20555;-71
2021/09/02 07:56:55;;;;;;;0.20;0.20;;;;;;;;;;10395441;28;20443;-71
2021/09/02 08:01:59;;;;;;;0.30;0.30;;;;;;;;;;10395651;28;20691;-73
2021/09/02 08:07:02;;;;;;;0.30;0.30;;;;;;;;;;10390346;28;20222;-72
2021/09/02 08:12:05;;;;;;;0.30;0.30;;;;;;;;;;10395992;28;20198;-71
2021/09/02 08:17:09;;;;;;;0.30;0.30;;;;;;;;;;10399355;28;20218;-71
2021/09/02 08:22:12;;;;;;;0.30;0.30;;;;;;;;;;10395118;28;20201;-70
2021/09/02 08:27:15;;;;;;;0.40;0.40;;;;;;;;;;10395740;28;20220;-71
2021/09/02 08:32:19;;;;;;;0.60;0.60;;;;;;;;;;10391968;28;20190;-71
2021/09/02 08:37:22;;;;;;;0.40;0.40;;;;;;;;;;10394563;28;20608;-73
2021/09/02 08:42:25;;;;;;;0.40;0.40;;;;;;;;;;10394800;28;20505;-73
2021/09/02 08:47:29;;;;;;;0.40;0.40;;;;;;;;;;10395450;28;20241;-72
2021/09/02 08:52:32;;;;;;;0.40;0.40;;;;;;;;;;10397835;28;20193;-71
2021/09/02 08:57:35;;;;;;;0.50;0.50;;;;;;;;;;10398440;28;20684;-71
2021/09/02 09:02:46;;;;;;;0.50;0.50;;;;;;;;;;10398487;28;20233;-72
2021/09/02 09:07:50;;;;;;;0.50;0.50;;;;;;;;;;10393943;28;20802;-71
2021/09/02 09:12:56;;;;;;;0.50;0.50;;;;;;;;;;10389747;28;20539;-71
2021/09/02 09:18:14;;;;;;;0.60;0.60;;;;;;;;;;10391399;28;20248;-71
2021/09/02 09:23:18;;;;;;;0.50;0.50;;;;;;;;;;10397491;28;20275;-70
2021/09/02 09:28:32;;;;;;;0.50;0.50;;;;;;;;;;10394313;28;20198;-70
2021/09/02 09:33:42;;;;;;;0.50;0.50;;;;;;;;;;10393997;28;20240;-71
2021/09/02 09:38:58;;;;;;;0.60;0.60;;;;;;;;;;10385759;28;20240;-73
2021/09/02 09:44:17;;;;;;;0.50;0.50;;;;;;;;;;10387728;28;20213;-72
2021/09/02 09:49:19;;;;;;;0.60;0.60;;;;;;;;;;10390295;28;20233;-72
2021/09/02 09:54:26;;;;;;;0.50;0.50;;;;;;;;;;10395887;28;20213;-73
2021/09/02 09:59:29;;;;;;;0.70;0.70;;;;;;;;;;10397691;28;20255;-71
2021/09/02 10:04:34;;;;;;;0.60;0.60;;;;;;;;;;10399626;28;20225;-71
2021/09/02 10:09:39;;;;;;;0.70;0.70;;;;;;;;;;10389889;28;20199;-71
2021/09/02 10:14:42;;;;;;;0.60;0.60;;;;;;;;;;10399100;28;20221;-71
2021/09/02 10:19:45;;;;;;;0.60;0.60;;;;;;;;;;10397777;28;20456;-74
2021/09/02 10:24:49;;;;;;;0.70;0.70;;;;;;;;;;10404797;28;20362;-75
2021/09/02 10:29:53;;;;;;;0.77;0.77;;;;;;;;;;10395905;28;20200;-73
2021/09/02 10:35:16;;;;;;;0.70;0.70;;;;;;;;;;10401664;28;20216;-74
2021/09/02 10:40:34;;;;;;;0.70;0.70;;;;;;;;;;10400138;28;20357;-76
2021/09/02 10:45:38;;;;;;;0.70;0.70;;;;;;;;;;10404046;28;20320;-73
2021/09/02 10:50:42;;;;;;;0.60;0.60;;;;;;;;;;10400374;28;20213;-72
2021/09/02 10:55:49;;;;;;;0.70;0.70;;;;;;;;;;10401688;28;20265;-73
2021/09/02 11:00:54;;;;;;;0.70;0.70;;;;;;;;;;10401134;28;20255;-73
2021/09/02 11:05:57;;;;;;;0.70;0.70;;;;;;;;;;10398514;28;20302;-75
2021/09/02 11:11:09;;;;;;;0.80;0.80;;;;;;;;;;10394973;28;20197;-70
2021/09/02 11:16:14;;;;;;;0.70;0.70;;;;;;;;;;10384074;28;20277;-74
2021/09/02 11:21:18;;;;;;;0.70;0.70;;;;;;;;;;10388224;28;20220;-73
2021/09/02 11:26:29;;;;;;;0.70;0.70;;;;;;;;;;10394165;28;20674;-74
2021/09/02 11:31:35;;;;;;;0.60;0.60;;;;;;;;;;10401657;28;20745;-75
2021/09/02 11:36:44;;;;;;;0.70;0.70;;;;;;;;;;10390565;28;20218;-72
2021/09/02 11:41:47;;;;;;;0.60;0.60;;;;;;;;;;10398078;28;20222;-73
2021/09/02 11:46:51;;;;;;;0.63;0.63;;;;;;;;;;10397865;28;20575;-71
2021/09/02 11:51:54;;;;;;;0.70;0.70;;;;;;;;;;10398137;28;20269;-74
2021/09/02 11:56:57;;;;;;;0.60;0.60;;;;;;;;;;10395460;28;20213;-74
2021/09/02 12:02:01;;;;;;;0.70;0.70;;;;;;;;;;10388561;28;20214;-74
2021/09/02 12:07:05;;;;;;;0.60;0.60;;;;;;;;;;10393315;28;20210;-72
2021/09/02 12:12:08;;;;;;;0.60;0.60;;;;;;;;;;10389649;28;20621;-71
2021/09/02 12:17:13;;;;;;;0.50;0.50;;;;;;;;;;10387099;28;20213;-70
2021/09/02 12:22:16;;;;;;;0.70;0.70;;;;;;;;;;10385007;28;20252;-72
2021/09/02 12:27:18;;;;;;;0.50;0.50;;;;;;;;;;10387110;28;20653;-72
2021/09/02 12:32:23;;;;;;;0.60;0.60;;;;;;;;;;10390945;28;20550;-72
2021/09/02 12:37:37;;;;;;;0.52;0.52;;;;;;;;;;10394295;28;20682;-72
2021/09/02 12:42:39;;;;;;;0.45;0.45;;;;;;;;;;10394216;28;20217;-70
2021/09/02 12:47:44;;;;;;;0.50;0.50;;;;;;;;;;10396922;28;20760;-70
2021/09/02 12:52:47;;;;;;;0.50;0.50;;;;;;;;;;10394427;28;20237;-70
2021/09/02 12:57:51;;;;;;;0.50;0.50;;;;;;;;;;10389002;28;20241;-70
2021/09/02 13:02:56;;;;;;;0.40;0.40;;;;;;;;;;10393340;28;20712;-70
2021/09/02 13:08:00;;;;;;;0.50;0.50;;;;;;;;;;10396239;28;20326;-71
2021/09/02 13:13:03;;;;;;;0.40;0.40;;;;;;;;;;10390326;28;20468;-69
2021/09/02 13:18:07;;;;;;;0.40;0.40;;;;;;;;;;10389593;28;20217;-71
2021/09/02 13:23:10;;;;;;;0.40;0.40;;;;;;;;;;10394081;28;20210;-69
2021/09/02 13:28:17;;;;;;;0.40;0.40;;;;;;;;;;10389538;28;20225;-70
2021/09/02 13:33:21;;;;;;;0.40;0.40;;;;;;;;;;10391623;28;20303;-69
2021/09/02 13:38:24;;;;;;;0.40;0.40;;;;;;;;;;10397226;28;20205;-72
2021/09/02 13:43:27;;;;;;;0.40;0.40;;;;;;;;;;10397239;28;20217;-72
2021/09/02 13:48:31;;;;;;;0.40;0.40;;;;;;;;;;10391178;28;20284;-70
2021/09/02 13:53:34;;;;;;;0.30;0.30;;;;;;;;;;10379666;28;20244;-71
2021/09/02 13:58:36;;;;;;;0.40;0.40;;;;;;;;;;10381389;28;20275;-69
2021/09/02 14:03:41;;;;;;;0.30;0.30;;;;;;;;;;10389913;28;20279;-70
2021/09/02 14:08:43;;;;;;;0.30;0.30;;;;;;;;;;10396034;28;20561;-68
2021/09/02 14:13:46;;;;;;;0.28;0.28;;;;;;;;;;10391266;28;20253;-68
2021/09/02 14:18:51;;;;;;;0.22;0.22;;;;;;;;;;10387333;28;20198;-68
2021/09/02 14:23:53;;;;;;;0.30;0.30;;;;;;;;;;10395461;28;20225;-70
2021/09/02 14:28:56;;;;;;;0.20;0.20;;;;;;;;;;10385013;28;20197;-71
2021/09/02 14:34:00;;;;;;;0.20;0.20;;;;;;;;;;10396678;28;20220;-71
2021/09/02 14:39:05;;;;;;;0.20;0.20;;;;;;;;;;10396546;28;20253;-69
2021/09/02 14:44:08;;;;;;;0.20;0.20;;;;;;;;;;10391789;28;20226;-71
2021/09/02 14:49:12;;;;;;;0.20;0.20;;;;;;;;;;10395852;28;20903;-68
2021/09/02 14:54:15;;;;;;;0.20;0.20;;;;;;;;;;10397098;28;20885;-70
2021/09/02 14:59:17;;;;;;;0.20;0.20;;;;;;;;;;10399057;28;20702;-69
2021/09/02 15:04:22;;;;;;;0.20;0.20;;;;;;;;;;10403323;28;20275;-70
2021/09/02 15:09:24;;;;;;;0.20;0.20;;;;;;;;;;10404214;28;20198;-71
2021/09/02 15:14:27;;;;;;;0.20;0.20;;;;;;;;;;10403234;28;20361;-71
2021/09/02 15:19:31;;;;;;;0.20;0.20;;;;;;;;;;10397781;28;20270;-68
2021/09/02 15:24:34;;;;;;;0.10;0.10;;;;;;;;;;10390865;28;20221;-71
2021/09/02 15:29:37;;;;;;;0.20;0.20;;;;;;;;;;10401419;28;20275;-70
2021/09/02 15:34:48;;;;;;;0.10;0.10;;;;;;;;;;10395761;28;20889;-68
2021/09/02 15:39:51;;;;;;;0.13;0.13;;;;;;;;;;10400374;28;20205;-71
2021/09/02 15:44:54;;;;;;;0.20;0.20;;;;;;;;;;10400217;28;20209;-70
2021/09/02 15:49:58;;;;;;;0.20;0.20;;;;;;;;;;10400774;28;21150;-71
2021/09/02 15:55:01;;;;;;;0.10;0.10;;;;;;;;;;10401200;28;20697;-71
2021/09/02 16:00:04;;;;;;;0.17;0.17;;;;;;;;;;10397658;28;20201;-71
2021/09/02 16:05:10;;;;;;;0.10;0.10;;;;;;;;;;10402190;28;20217;-69
2021/09/02 16:10:13;;;;;;;0.10;0.10;;;;;;;;;;10402256;28;20606;-71
2021/09/02 16:15:16;;;;;;;0.10;0.10;;;;;;;;;;10411430;28;20221;-72
2021/09/02 16:20:22;;;;;;;0.10;0.10;;;;;;;;;;10387750;28;20199;-69
2021/09/02 16:25:25;;;;;;;0.10;0.10;;;;;;;;;;10393603;28;20218;-69
2021/09/02 16:30:28;;;;;;;0.20;0.20;;;;;;;;;;10399692;28;20256;-71
2021/09/02 16:35:32;;;;;;;0.10;0.10;;;;;;;;;;10398661;28;20284;-69
2021/09/02 16:40:35;;;;;;;0.10;0.10;;;;;;;;;;10396320;28;20282;-70
2021/09/02 16:45:38;;;;;;;0.10;0.10;;;;;;;;;;10398329;28;20630;-71
2021/09/02 16:50:43;;;;;;;0.10;0.10;;;;;;;;;;10397588;28;20197;-72
2021/09/02 16:55:46;;;;;;;0.10;0.10;;;;;;;;;;10399031;28;20243;-69
2021/09/02 17:00:49;;;;;;;0.10;0.10;;;;;;;;;;10390869;28;20210;-71
2021/09/02 17:05:53;;;;;;;0.10;0.10;;;;;;;;;;10397640;28;20214;-70
2021/09/02 17:10:56;;;;;;;0.10;0.10;;;;;;;;;;10397833;28;20685;-70
2021/09/02 17:15:59;;;;;;;0.10;0.10;;;;;;;;;;10395573;28;20260;-71
2021/09/02 17:21:03;;;;;;;0.10;0.10;;;;;;;;;;10397461;28;20693;-69
2021/09/02 17:26:06;;;;;;;0.10;0.10;;;;;;;;;;10390054;28;20209;-70
2021/09/02 17:31:09;;;;;;;0.10;0.10;;;;;;;;;;10395007;28;20208;-71
2021/09/02 17:36:13;;;;;;;0.00;0.00;;;;;;;;;;10386433;28;20217;-69
2021/09/02 17:41:16;;;;;;;0.10;0.10;;;;;;;;;;10391173;28;20221;-70
2021/09/02 17:46:19;;;;;;;0.00;0.00;;;;;;;;;;10389063;28;21153;-70
2021/09/02 17:51:25;;;;;;;0.00;0.00;;;;;;;;;;10398576;28;20197;-70
2021/09/02 17:56:28;;;;;;;0.00;0.00;;;;;;;;;;10386944;28;20528;-68
2021/09/02 18:01:31;;;;;;;0.10;0.10;;;;;;;;;;10387056;28;20190;-69
2021/09/02 18:06:35;;;;;;;0.10;0.10;;;;;;;;;;10395832;28;20606;-70
2021/09/02 18:11:38;;;;;;;0.07;0.07;;;;;;;;;;10407494;28;20255;-70
2021/09/02 18:16:41;;;;;;;0.00;0.00;;;;;;;;;;10399902;28;20213;-72
2021/09/02 18:21:45;;;;;;;0.10;0.10;;;;;;;;;;10407701;28;20198;-69
2021/09/02 18:26:48;;;;;;;0.00;0.00;;;;;;;;;;10398612;28;20229;-71
2021/09/02 18:31:51;;;;;;;0.00;0.00;;;;;;;;;;10392359;28;20686;-70
2021/09/02 18:36:55;;;;;;;0.10;0.10;;;;;;;;;;10401861;28;20230;-72
2021/09/02 18:42:02;;;;;;;0.00;0.00;;;;;;;;;;10399926;28;20226;-69
2021/09/02 18:47:05;;;;;;;0.10;0.10;;;;;;;;;;10394502;28;20324;-70
2021/09/02 18:52:09;;;;;;;0.00;0.00;;;;;;;;;;10400802;28;20201;-70
2021/09/02 18:57:12;;;;;;;0.10;0.10;;;;;;;;;;10395213;28;20205;-71
2021/09/02 19:02:18;;;;;;;0.00;0.00;;;;;;;;;;10397889;28;20255;-70
2021/09/02 19:07:22;;;;;;;0.00;0.00;;;;;;;;;;10397109;28;20739;-71
2021/09/02 19:12:27;;;;;;;0.10;0.10;;;;;;;;;;10407435;28;20198;-69
2021/09/02 19:17:30;;;;;;;0.00;0.00;;;;;;;;;;10396361;28;20222;-70
2021/09/02 19:22:35;;;;;;;0.10;0.10;;;;;;;;;;10398454;28;20213;-69
2021/09/02 19:27:38;;;;;;;0.00;0.00;;;;;;;;;;10397772;28;20721;-71
2021/09/02 19:32:42;;;;;;;0.00;0.00;;;;;;;;;;10401554;28;20756;-71
2021/09/02 19:37:48;;;;;;;0.00;0.00;;;;;;;;;;10393164;28;20229;-69
2021/09/02 19:42:51;;;;;;;0.00;0.00;;;;;;;;;;10401260;28;20253;-70
2021/09/02 19:47:55;;;;;;;0.10;0.10;;;;;;;;;;10398902;28;20400;-70
2021/09/02 19:53:17;;;;;;;0.10;0.10;;;;;;;;;;10398948;28;20419;-69
2021/09/02 19:58:20;;;;;;;0.00;0.00;;;;;;;;;;10403175;28;20894;-69
2021/09/02 20:03:27;;;;;;;0.00;0.00;;;;;;;;;;10398523;28;20204;-71
2021/09/02 20:08:32;;;;;;;0.00;0.00;;;;;;;;;;10391706;28;20275;-71
2021/09/02 20:13:36;;;;;;;0.00;0.00;;;;;;;;;;10393221;28;20392;-73
2021/09/02 20:18:40;;;;;;;0.00;0.00;;;;;;;;;;10396295;28;20229;-69
2021/09/02 20:23:47;;;;;;;0.10;0.10;;;;;;;;;;10396441;28;20224;-71
2021/09/02 20:28:53;;;;;;;0.00;0.00;;;;;;;;;;10388796;28;20224;-70
2021/09/02 20:33:56;;;;;;;0.00;0.00;;;;;;;;;;10396430;28;20217;-70
2021/09/02 20:39:04;;;;;;;0.10;0.10;;;;;;;;;;10388157;28;20197;-71
2021/09/02 20:44:09;;;;;;;0.00;0.00;;;;;;;;;;10385868;28;20229;-70
2021/09/02 20:49:19;;;;;;;0.00;0.00;;;;;;;;;;10402358;28;20218;-70
2021/09/02 20:54:25;;;;;;;0.00;0.00;;;;;;;;;;10386633;28;20487;-68
2021/09/02 20:59:28;;;;;;;0.00;0.00;;;;;;;;;;10388054;28;20236;-70
2021/09/02 21:04:34;;;;;;;0.10;0.10;;;;;;;;;;10393579;28;20741;-70
2021/09/02 21:09:38;;;;;;;0.00;0.00;;;;;;;;;;10395603;28;20259;-71
2021/09/02 21:14:47;;;;;;;0.00;0.00;;;;;;;;;;10394815;28;20709;-70
2021/09/02 21:19:51;;;;;;;0.00;0.00;;;;;;;;;;10392794;28;20220;-70
2021/09/02 21:24:58;;;;;;;0.00;0.00;;;;;;;;;;10397990;28;20271;-69
2021/09/02 21:30:03;;;;;;;0.10;0.10;;;;;;;;;;10393009;28;20550;-71
2021/09/02 21:35:07;;;;;;;0.00;0.00;;;;;;;;;;10384911;28;20610;-69
2021/09/02 21:40:22;;;;;;;0.00;0.00;;;;;;;;;;10396284;28;20204;-71
2021/09/02 21:45:27;;;;;;;0.00;0.00;;;;;;;;;;10402381;28;20228;-69
2021/09/02 21:50:29;;;;;;;0.00;0.00;;;;;;;;;;10407066;28;20563;-72
2021/09/02 21:55:34;;;;;;;0.00;0.00;;;;;;;;;;10409763;28;20233;-72
2021/09/02 22:00:40;;;;;;;0.00;0.00;;;;;;;;;;10408634;28;20554;-72
2021/09/02 22:05:44;;;;;;;0.00;0.00;;;;;;;;;;10409039;28;20229;-71
2021/09/02 22:10:50;;;;;;;0.00;0.00;;;;;;;;;;10421210;28;20229;-70
2021/09/02 22:15:55;;;;;;;0.00;0.00;;;;;;;;;;10406845;28;20209;-69
2021/09/02 22:21:00;;;;;;;0.00;0.00;;;;;;;;;;10408112;28;20193;-70
2021/09/02 22:26:05;;;;;;;0.00;0.00;;;;;;;;;;10401143;28;20213;-69
2021/09/02 22:31:08;;;;;;;0.00;0.00;;;;;;;;;;10405341;28;20627;-70
2021/09/02 22:36:11;;;;;;;0.00;0.00;;;;;;;;;;10402257;28;20310;-68
2021/09/02 22:41:16;;;;;;;0.00;0.00;;;;;;;;;;10405468;28;20550;-72
2021/09/02 22:46:19;;;;;;;0.00;0.00;;;;;;;;;;10405375;28;20542;-73
2021/09/02 22:51:22;;;;;;;0.00;0.00;;;;;;;;;;10398441;28;20609;-69
2021/09/02 22:56:27;;;;;;;0.00;0.00;;;;;;;;;;10400453;28;20217;-72
2021/09/02 23:01:29;;;;;;;0.00;0.00;;;;;;;;;;10403030;28;20570;-69
2021/09/02 23:06:37;;;;;;;0.00;0.00;;;;;;;;;;10390177;28;20331;-71
2021/09/02 23:11:41;;;;;;;0.00;0.00;;;;;;;;;;10400118;28;20241;-70
2021/09/02 23:16:46;;;;;;;0.00;0.00;;;;;;;;;;10398921;28;20225;-71
2021/09/02 23:21:50;;;;;;;0.00;0.00;;;;;;;;;;10401369;28;20234;-71
2021/09/02 23:26:56;;;;;;;0.00;0.00;;;;;;;;;;10396896;28;20224;-70
2021/09/02 23:31:59;;;;;;;0.00;0.00;;;;;;;;;;10397407;28;20198;-69
2021/09/02 23:37:22;;;;;;;0.00;0.00;;;;;;;;;;10396626;28;20230;-70
2021/09/02 23:42:27;;;;;;;0.00;0.00;;;;;;;;;;10396090;28;20610;-71
2021/09/02 23:47:50;;;;;;;0.10;0.10;;;;;;;;;;10393584;28;20229;-70
2021/09/02 23:52:55;;;;;;;0.00;0.00;;;;;;;;;;10397784;28;20228;-71
2021/09/02 23:58:19;;;;;;;0.00;0.00;;;;;;;;;;10394544;28;20591;-70
